Iberia, Ohio
Current Conditions -  °F | °C
As of 1:53 AM on Friday 19 Dec 2014 (Local Time) from KMNN Reporting Station
Haze Haze  
Wind Chill: 22°   Ceiling: 1000
Heat Index: 28°   Visibility: 5mi
Dew Point: 23°   Wind: 6mph
Humidity: 81%   Direction: 270°W
Pressure: 30.2"   Gusts: NA
Location:  40.67°N, 82.84°W
Report Text: KMNN 190653Z AUTO 27005KT 5SM HZ OVC010 M02/M05 A3020 RMK AO2 CIG 009V013 SLP239 T10221050 TSNO
Loading
Personal Weather Stations






























Interactive Weather Map New forecast layout! Learn more

10-Day Weather Forecast

Advertisements
Track Severe Weather on mobile